Time;durP1;ratioP1;P1;durP2;ratioP2;P2;SDS_P1;SDS_P2;PMS_P1;PMS_P2;Temp;Humidity;BMP_temperature;BMP_pressure;BME280_temperature;BME280_humidity;BME280_pressure;Samples;Min_cycle;Max_cycle;Signal;HPM_P1;HPM_P2
2023/03/29 00:00:18;;;;;;;9.07;4.35;;;2.80;99.90;;;;;;5035558;28;20094;-85
2023/03/29 00:02:47;;;;;;;11.23;4.18;;;2.80;99.90;;;;;;5036337;28;20026;-85
2023/03/29 00:05:14;;;;;;;14.88;4.55;;;2.80;99.90;;;;;;5020050;28;20021;-85
2023/03/29 00:07:41;;;;;;;12.00;4.40;;;2.80;99.90;;;;;;5036403;28;20120;-85
2023/03/29 00:10:08;;;;;;;8.07;4.32;;;2.80;99.90;;;;;;5019880;28;20060;-85
2023/03/29 00:12:35;;;;;;;6.93;4.20;;;2.90;99.90;;;;;;5019511;28;20033;-85
2023/03/29 00:15:02;;;;;;;7.22;4.70;;;2.90;99.90;;;;;;5036187;28;20025;-85
2023/03/29 00:17:28;;;;;;;11.05;4.40;;;2.80;99.90;;;;;;5019674;28;20044;-86
2023/03/29 00:19:54;;;;;;;8.93;4.90;;;2.90;99.90;;;;;;5036241;28;20083;-85
2023/03/29 00:22:29;;;;;;;6.78;4.05;;;2.90;99.90;;;;;;5035686;28;20087;-85
2023/03/29 00:24:54;;;;;;;9.38;3.72;;;2.80;99.90;;;;;;5036035;28;20028;-85
2023/03/29 00:27:29;;;;;;;7.38;4.05;;;2.90;99.90;;;;;;5036676;28;20029;-85
2023/03/29 00:29:55;;;;;;;9.52;4.45;;;2.90;99.90;;;;;;5055496;28;20074;-85
2023/03/29 00:32:21;;;;;;;7.60;4.40;;;2.90;99.90;;;;;;5023456;28;20021;-85
2023/03/29 00:34:49;;;;;;;5.00;3.60;;;2.90;99.90;;;;;;5065809;28;20044;-84
2023/03/29 00:37:17;;;;;;;6.57;3.85;;;2.80;99.90;;;;;;5073535;28;20024;-84
2023/03/29 00:39:45;;;;;;;10.77;5.00;;;2.80;99.90;;;;;;5036706;28;20064;-84
2023/03/29 00:42:16;;;;;;;6.60;4.13;;;2.90;99.90;;;;;;5047388;28;20052;-84
2023/03/29 00:45:14;;;;;;;10.20;4.70;;;2.90;99.90;;;;;;5037506;28;20392;-85
2023/03/29 00:47:55;;;;;;;9.32;5.13;;;2.80;99.90;;;;;;5035429;28;20041;-85
2023/03/29 00:50:36;;;;;;;8.98;5.30;;;2.90;99.90;;;;;;5035723;28;20033;-85
2023/03/29 00:53:13;;;;;;;9.88;5.80;;;2.90;99.90;;;;;;5018134;28;20079;-85
2023/03/29 00:56:10;;;;;;;12.52;6.55;;;2.90;99.90;;;;;;5018927;28;20120;-85
2023/03/29 00:58:58;;;;;;;10.43;6.10;;;2.90;99.90;;;;;;5035846;28;20024;-87
2023/03/29 01:01:40;;;;;;;12.07;5.38;;;2.90;99.90;;;;;;5018055;28;20044;-86
2023/03/29 01:04:24;;;;;;;10.65;5.88;;;3.00;99.90;;;;;;5019076;28;20029;-85
2023/03/29 01:07:12;;;;;;;9.90;5.25;;;3.00;99.90;;;;;;5027525;28;20044;-86
2023/03/29 01:09:41;;;;;;;9.30;4.90;;;3.00;99.90;;;;;;5018992;28;20617;-86
2023/03/29 01:12:15;;;;;;;8.30;5.10;;;3.00;99.90;;;;;;5035065;28;20112;-85
2023/03/29 01:14:51;;;;;;;9.75;4.10;;;3.00;99.90;;;;;;5018710;28;20055;-85
2023/03/29 01:17:20;;;;;;;10.77;4.25;;;3.00;99.90;;;;;;5041160;28;20025;-86
2023/03/29 01:19:57;;;;;;;8.60;4.20;;;3.10;99.90;;;;;;5034650;28;20507;-86
2023/03/29 01:22:37;;;;;;;7.63;3.92;;;3.00;99.90;;;;;;5018246;28;20029;-85
2023/03/29 01:25:10;;;;;;;7.95;3.88;;;3.00;99.90;;;;;;5035062;28;20704;-85
2023/03/29 01:27:53;;;;;;;7.82;3.92;;;3.00;99.90;;;;;;5053198;28;20029;-85
2023/03/29 01:30:39;;;;;;;11.13;3.83;;;3.00;99.90;;;;;;5035128;28;20030;-85
2023/03/29 01:33:19;;;;;;;6.63;3.97;;;3.00;99.90;;;;;;5018465;28;20021;-85
2023/03/29 01:36:00;;;;;;;13.48;4.20;;;2.90;99.90;;;;;;5035341;28;20384;-85
2023/03/29 01:38:33;;;;;;;9.07;4.60;;;3.00;99.90;;;;;;5018266;28;20071;-85
2023/03/29 01:41:01;;;;;;;8.38;4.72;;;3.00;99.90;;;;;;5018366;28;20124;-85
2023/03/29 01:43:49;;;;;;;5.95;3.58;;;3.00;99.90;;;;;;5035079;28;20075;-85
2023/03/29 01:46:32;;;;;;;13.15;4.63;;;3.00;99.90;;;;;;5016490;28;20542;-85
2023/03/29 01:49:18;;;;;;;11.93;4.75;;;3.00;99.90;;;;;;5030025;28;20029;-85
2023/03/29 01:52:24;;;;;;;9.85;5.03;;;3.00;99.90;;;;;;5032694;28;20043;-86
2023/03/29 01:55:04;;;;;;;9.80;6.18;;;3.00;99.90;;;;;;5023870;28;20053;-86
2023/03/29 01:57:34;;;;;;;10.80;4.00;;;3.00;99.90;;;;;;5032435;28;20025;-86
2023/03/29 02:00:10;;;;;;;10.88;5.20;;;3.00;99.90;;;;;;5036231;28;20384;-85
2023/03/29 02:02:40;;;;;;;8.02;4.85;;;3.00;99.90;;;;;;5035424;28;20026;-85
2023/03/29 02:05:08;;;;;;;12.18;5.13;;;3.00;99.90;;;;;;5012906;28;20029;-85
2023/03/29 02:07:37;;;;;;;9.20;5.05;;;3.00;99.90;;;;;;5018077;28;20035;-85
2023/03/29 02:10:05;;;;;;;9.27;5.03;;;3.00;99.90;;;;;;5035305;28;20025;-85
2023/03/29 02:12:31;;;;;;;10.95;5.45;;;3.00;99.90;;;;;;5016030;28;20045;-85
2023/03/29 02:14:58;;;;;;;9.85;5.97;;;3.00;99.90;;;;;;5019764;28;20036;-85
2023/03/29 02:17:26;;;;;;;15.60;6.50;;;3.00;99.90;;;;;;5018370;28;20048;-85
2023/03/29 02:20:42;;;;;;;18.10;6.07;;;3.00;99.90;;;;;;5034778;28;20029;-85
2023/03/29 02:23:22;;;;;;;13.80;6.63;;;3.00;99.90;;;;;;5029910;28;20039;-85
2023/03/29 02:25:52;;;;;;;13.10;5.93;;;3.10;99.90;;;;;;5038339;28;20017;-85
2023/03/29 02:28:20;;;;;;;12.95;6.55;;;3.10;99.90;;;;;;5021819;28;20024;-85
2023/03/29 02:30:52;;;;;;;12.13;5.63;;;3.10;99.90;;;;;;5037907;28;20452;-85
2023/03/29 02:33:26;;;;;;;12.98;5.20;;;3.10;99.90;;;;;;5037848;28;20059;-84
2023/03/29 02:36:09;;;;;;;11.02;5.90;;;3.10;99.90;;;;;;5021631;28;20029;-84
2023/03/29 02:38:37;;;;;;;8.65;4.65;;;3.10;99.90;;;;;;5020819;28;20028;-85
2023/03/29 02:41:04;;;;;;;9.88;5.65;;;3.00;99.90;;;;;;5037377;28;20048;-84
2023/03/29 02:43:33;;;;;;;13.25;6.25;;;2.90;99.90;;;;;;5021014;28;20025;-84
2023/03/29 02:46:06;;;;;;;8.48;5.65;;;2.90;99.90;;;;;;5038007;28;20456;-85
2023/03/29 02:48:36;;;;;;;12.15;6.30;;;2.90;99.90;;;;;;5021649;28;20033;-85
2023/03/29 02:51:20;;;;;;;11.50;5.95;;;2.90;99.90;;;;;;5037738;28;20532;-85
2023/03/29 02:53:52;;;;;;;13.50;7.20;;;2.90;99.90;;;;;;5020457;28;20484;-85
2023/03/29 02:56:21;;;;;;;12.48;6.20;;;2.90;99.90;;;;;;5021598;28;20071;-85
2023/03/29 02:58:47;;;;;;;11.18;6.00;;;2.80;99.90;;;;;;5037908;28;20124;-86
2023/03/29 03:01:15;;;;;;;12.77;6.15;;;2.80;99.90;;;;;;5021313;28;20132;-85
2023/03/29 03:03:41;;;;;;;12.43;7.95;;;2.80;99.90;;;;;;5037774;28;20033;-85
2023/03/29 03:06:08;;;;;;;12.35;6.85;;;2.80;99.90;;;;;;5025715;28;20029;-86
2023/03/29 03:08:34;;;;;;;16.50;6.35;;;2.80;99.90;;;;;;5037792;28;20035;-86
2023/03/29 03:11:00;;;;;;;16.42;6.95;;;2.80;99.90;;;;;;5020644;28;20032;-86
2023/03/29 03:13:26;;;;;;;10.05;6.25;;;2.80;99.90;;;;;;5017330;28;20115;-85
2023/03/29 03:15:52;;;;;;;13.18;6.90;;;2.90;99.90;;;;;;5053454;28;20063;-85
2023/03/29 03:18:18;;;;;;;11.45;6.32;;;2.90;99.90;;;;;;5017358;28;20732;-86
2023/03/29 03:21:10;;;;;;;15.85;5.65;;;2.90;99.90;;;;;;5019706;28;20180;-85
2023/03/29 03:23:36;;;;;;;11.13;6.50;;;2.90;99.90;;;;;;5018519;28;20038;-86
2023/03/29 03:26:02;;;;;;;11.68;6.88;;;2.90;99.90;;;;;;5038298;28;20021;-85
2023/03/29 03:28:31;;;;;;;10.45;6.00;;;2.90;99.90;;;;;;5036511;28;20055;-85
2023/03/29 03:30:58;;;;;;;14.43;6.55;;;2.80;99.90;;;;;;5021315;28;20025;-85
2023/03/29 03:33:25;;;;;;;16.42;5.93;;;2.80;99.90;;;;;;5036947;28;20099;-85
2023/03/29 03:36:10;;;;;;;17.58;7.53;;;2.70;99.90;;;;;;5049225;28;20087;-86
2023/03/29 03:38:37;;;;;;;16.55;7.70;;;2.70;99.90;;;;;;5036792;28;20362;-86
2023/03/29 03:41:06;;;;;;;14.43;7.93;;;2.70;99.90;;;;;;5020823;28;20033;-85
2023/03/29 03:43:33;;;;;;;21.17;6.90;;;2.70;99.90;;;;;;5021422;28;20013;-86
2023/03/29 03:46:09;;;;;;;18.10;8.45;;;2.60;99.90;;;;;;5047893;28;20044;-85
2023/03/29 03:48:36;;;;;;;11.32;6.75;;;2.50;99.90;;;;;;5041352;28;20043;-86
2023/03/29 03:51:14;;;;;;;13.23;7.38;;;2.50;99.90;;;;;;5042870;28;20041;-86
2023/03/29 03:53:43;;;;;;;12.32;7.28;;;2.40;99.90;;;;;;5039866;28;20055;-85
2023/03/29 03:56:12;;;;;;;13.25;6.60;;;2.40;99.90;;;;;;5040669;28;20072;-86
2023/03/29 03:58:56;;;;;;;20.30;8.88;;;2.40;99.90;;;;;;5034317;28;20054;-85
2023/03/29 04:01:23;;;;;;;21.00;9.05;;;2.50;99.90;;;;;;5022755;28;20028;-85
2023/03/29 04:03:59;;;;;;;11.50;6.93;;;2.50;99.90;;;;;;5022208;28;20071;-85
2023/03/29 04:06:29;;;;;;;12.90;6.40;;;2.70;99.90;;;;;;5039430;28;20020;-84
2023/03/29 04:09:49;;;;;;;16.95;8.30;;;2.60;99.90;;;;;;5034078;28;20038;-85
2023/03/29 04:12:33;;;;;;;15.82;7.43;;;2.60;99.90;;;;;;5039755;28;20502;-85
2023/03/29 04:15:00;;;;;;;14.00;7.45;;;2.60;99.90;;;;;;5020168;28;20029;-85
2023/03/29 04:17:26;;;;;;;12.35;6.55;;;2.70;99.90;;;;;;5041422;28;20032;-85
2023/03/29 04:20:10;;;;;;;12.80;6.32;;;2.70;99.90;;;;;;5028731;28;20020;-85
2023/03/29 04:22:39;;;;;;;31.27;15.50;;;2.80;99.90;;;;;;5035368;28;20029;-85
2023/03/29 04:25:07;;;;;;;17.20;8.27;;;2.80;99.90;;;;;;5036170;28;20028;-86
2023/03/29 04:27:41;;;;;;;18.20;9.57;;;2.80;99.90;;;;;;5036557;28;20055;-86
2023/03/29 04:30:16;;;;;;;22.75;9.27;;;2.80;99.90;;;;;;5035709;28;20028;-86
2023/03/29 04:33:00;;;;;;;14.25;8.02;;;2.80;99.90;;;;;;5021664;28;20032;-86
2023/03/29 04:35:26;;;;;;;10.80;6.07;;;2.90;99.90;;;;;;5019222;28;20036;-86
2023/03/29 04:37:53;;;;;;;13.35;5.90;;;2.90;99.90;;;;;;5035104;28;20148;-86
2023/03/29 04:40:20;;;;;;;11.15;5.93;;;3.00;99.90;;;;;;5019277;28;20029;-86
2023/03/29 04:43:15;;;;;;;13.68;5.90;;;3.00;99.90;;;;;;5020270;28;20083;-86
2023/03/29 04:45:51;;;;;;;13.18;6.57;;;3.00;99.90;;;;;;5050748;28;20021;-86
2023/03/29 04:48:52;;;;;;;13.77;5.93;;;3.00;99.90;;;;;;4991633;28;20381;-86
2023/03/29 04:51:27;;;;;;;9.15;6.10;;;3.00;99.90;;;;;;5014365;28;20033;-86
2023/03/29 04:53:54;;;;;;;12.75;6.47;;;3.10;99.90;;;;;;5035384;28;20036;-86
2023/03/29 04:56:22;;;;;;;13.07;6.32;;;3.20;99.90;;;;;;5018798;28;20021;-86
2023/03/29 04:59:11;;;;;;;13.98;5.63;;;3.20;99.90;;;;;;5038441;28;20016;-85
2023/03/29 05:01:37;;;;;;;11.48;5.93;;;3.20;99.90;;;;;;5018072;28;20116;-85
2023/03/29 05:04:03;;;;;;;10.50;5.93;;;3.20;99.90;;;;;;5018384;28;20017;-85
2023/03/29 05:06:37;;;;;;;11.23;6.15;;;3.20;99.90;;;;;;5038589;28;20028;-84
2023/03/29 05:09:05;;;;;;;12.30;6.13;;;3.20;99.90;;;;;;5045611;28;20024;-85
2023/03/29 05:11:42;;;;;;;15.50;6.30;;;3.30;99.90;;;;;;5019230;28;20534;-86
2023/03/29 05:14:09;;;;;;;11.77;6.05;;;3.20;99.90;;;;;;5018857;28;20047;-86
2023/03/29 05:16:36;;;;;;;10.38;5.97;;;3.20;99.90;;;;;;5019161;28;20021;-86
2023/03/29 05:19:04;;;;;;;16.75;7.07;;;3.20;99.90;;;;;;5013425;28;20028;-85
2023/03/29 05:21:32;;;;;;;10.35;5.70;;;3.20;99.90;;;;;;5033338;28;20037;-86
2023/03/29 05:24:01;;;;;;;13.70;6.47;;;3.10;99.90;;;;;;5034426;28;20558;-85
2023/03/29 05:26:51;;;;;;;11.90;6.68;;;3.10;99.90;;;;;;5036942;28;20035;-86
2023/03/29 05:29:17;;;;;;;;;;;3.20;99.90;;;;;;5032590;28;20025;-86
2023/03/29 05:31:48;;;;;;;11.93;6.72;;;3.20;99.90;;;;;;5013633;28;19910;-85
2023/03/29 05:34:15;;;;;;;11.77;6.30;;;3.30;99.90;;;;;;5031967;28;20484;-86
2023/03/29 05:36:45;;;;;;;14.73;6.53;;;3.40;99.90;;;;;;5030953;28;20029;-86
2023/03/29 05:39:12;;;;;;;10.65;6.00;;;3.50;99.90;;;;;;5032391;28;20303;-85
2023/03/29 05:41:40;;;;;;;11.85;6.63;;;3.70;99.90;;;;;;5015722;28;20056;-85
2023/03/29 05:44:24;;;;;;;13.88;6.03;;;3.80;99.90;;;;;;5053527;28;20120;-86
2023/03/29 05:46:58;;;;;;;14.52;6.38;;;3.90;99.90;;;;;;5023465;28;20404;-86
2023/03/29 05:49:24;;;;;;;10.02;5.95;;;4.00;99.90;;;;;;5012781;28;20033;-86
2023/03/29 05:52:07;;;;;;;8.50;5.45;;;4.10;99.90;;;;;;5016858;28;20049;-86
2023/03/29 05:54:35;;;;;;;8.85;5.22;;;4.20;99.90;;;;;;5034352;28;20029;-86
2023/03/29 05:57:01;;;;;;;9.93;5.68;;;4.20;99.90;;;;;;5017111;28;20025;-86
2023/03/29 05:59:28;;;;;;;11.73;5.80;;;4.10;99.90;;;;;;5037134;28;20083;-86
2023/03/29 06:01:54;;;;;;;12.18;5.55;;;4.20;99.90;;;;;;5020230;28;20017;-86
2023/03/29 06:04:20;;;;;;;10.70;5.82;;;4.30;99.90;;;;;;5018368;28;20026;-85
2023/03/29 06:07:25;;;;;;;10.95;4.60;;;4.40;99.90;;;;;;5033537;28;20035;-86
2023/03/29 06:10:19;;;;;;;8.48;4.93;;;4.70;99.90;;;;;;5015029;28;20623;-86
2023/03/29 06:12:49;;;;;;;9.80;4.68;;;4.80;99.90;;;;;;5019476;28;20065;-86
2023/03/29 06:15:18;;;;;;;8.52;4.68;;;4.90;99.90;;;;;;5021412;28;20040;-86
2023/03/29 06:18:05;;;;;;;12.10;5.82;;;5.10;99.90;;;;;;5023791;28;20025;-86
2023/03/29 06:20:33;;;;;;;11.48;4.22;;;5.20;99.90;;;;;;5037479;28;20025;-85
2023/03/29 06:23:04;;;;;;;10.77;4.25;;;5.40;99.90;;;;;;5037900;28;20029;-86
2023/03/29 06:25:30;;;;;;;7.15;4.18;;;5.50;99.90;;;;;;5022322;28;20381;-86
2023/03/29 06:27:57;;;;;;;9.07;4.72;;;5.60;99.90;;;;;;5020511;28;20036;-86
2023/03/29 06:30:23;;;;;;;12.18;4.65;;;5.60;99.90;;;;;;5020527;28;20692;-85
2023/03/29 06:32:53;;;;;;;7.70;4.70;;;5.60;99.90;;;;;;5019984;28;20024;-86
2023/03/29 06:35:51;;;;;;;7.72;3.95;;;5.60;99.90;;;;;;5032230;28;20028;-86
2023/03/29 06:38:25;;;;;;;13.75;4.28;;;5.70;99.90;;;;;;5021685;28;20060;-86
2023/03/29 06:41:17;;;;;;;17.10;4.90;;;5.90;99.90;;;;;;5050552;28;20091;-86
2023/03/29 06:44:02;;;;;;;10.73;4.60;;;6.10;99.90;;;;;;5040144;28;20032;-86
2023/03/29 06:46:33;;;;;;;10.88;4.50;;;6.10;99.90;;;;;;5019506;28;20120;-86
2023/03/29 06:49:04;;;;;;;10.43;4.88;;;6.10;99.90;;;;;;5035454;28;20742;-86
2023/03/29 06:51:42;;;;;;;12.93;4.78;;;6.20;99.90;;;;;;5036208;28;20029;-86
2023/03/29 06:54:09;;;;;;;6.60;3.97;;;6.20;99.90;;;;;;5035650;28;20032;-86
2023/03/29 06:56:38;;;;;;;11.98;5.03;;;6.30;99.90;;;;;;5037079;28;20045;-86
2023/03/29 06:59:09;;;;;;;20.60;5.78;;;6.40;99.90;;;;;;5024439;28;20116;-85
2023/03/29 07:01:58;;;;;;;11.02;5.25;;;6.50;99.90;;;;;;5040174;28;20033;-87
2023/03/29 07:04:37;;;;;;;11.88;4.95;;;6.70;99.90;;;;;;5011890;28;20025;-87
2023/03/29 07:07:18;;;;;;;10.13;4.72;;;6.70;99.90;;;;;;5020192;28;20037;-87
2023/03/29 07:09:52;;;;;;;9.32;4.63;;;6.60;99.90;;;;;;5034293;28;20029;-87
2023/03/29 07:12:39;;;;;;;7.22;4.43;;;6.70;99.90;;;;;;5052121;28;20037;-87
2023/03/29 07:15:06;;;;;;;11.63;4.18;;;6.70;99.90;;;;;;5020447;28;20025;-86
2023/03/29 07:18:03;;;;;;;9.63;4.13;;;6.80;99.90;;;;;;5039631;28;20164;-87
2023/03/29 07:20:30;;;;;;;7.68;3.95;;;6.80;99.90;;;;;;5039017;28;20059;-87
2023/03/29 07:23:05;;;;;;;10.45;4.53;;;6.60;99.90;;;;;;5020340;28;20029;-87
2023/03/29 07:25:32;;;;;;;6.25;4.07;;;6.60;99.90;;;;;;5035821;28;20025;-87
2023/03/29 07:27:58;;;;;;;8.65;3.70;;;6.80;99.90;;;;;;5049907;28;20092;-87
2023/03/29 07:30:28;;;;;;;13.13;4.60;;;6.80;99.90;;;;;;5022318;28;20025;-87
2023/03/29 07:33:01;;;;;;;12.55;4.70;;;6.90;99.90;;;;;;5036204;28;20032;-87
2023/03/29 07:35:32;;;;;;;;;;;7.10;99.90;;;;;;5018666;28;20033;-87
2023/03/29 07:37:58;;;;;;;10.48;4.30;;;7.20;99.90;;;;;;5017733;28;19927;-87
2023/03/29 07:40:26;;;;;;;8.40;4.13;;;7.20;99.90;;;;;;5020197;28;20155;-87
2023/03/29 07:42:57;;;;;;;6.30;4.07;;;7.20;99.90;;;;;;5035809;28;20033;-87
2023/03/29 07:45:27;;;;;;;13.27;4.72;;;7.20;99.90;;;;;;5019425;28;20033;-87
2023/03/29 07:48:00;;;;;;;9.73;4.55;;;7.20;99.90;;;;;;5020539;28;20035;-86
2023/03/29 07:50:32;;;;;;;13.38;5.30;;;7.20;99.90;;;;;;5031494;28;20369;-86
2023/03/29 07:53:00;;;;;;;10.45;4.35;;;7.10;99.90;;;;;;5035621;28;20056;-86
2023/03/29 07:55:27;;;;;;;19.60;4.38;;;7.20;99.90;;;;;;5020196;28;20037;-87
2023/03/29 07:57:58;;;;;;;9.05;4.25;;;7.20;99.90;;;;;;5017846;28;20033;-86
2023/03/29 08:00:24;;;;;;;8.45;4.43;;;7.40;99.90;;;;;;5015882;28;20443;-86
2023/03/29 08:03:14;;;;;;;11.43;4.07;;;7.70;99.90;;;;;;5038553;28;20033;-86
2023/03/29 08:05:41;;;;;;;;;;;7.90;99.90;;;;;;5036932;28;20491;-86
2023/03/29 08:08:13;;;;;;;8.13;3.55;;;8.20;99.90;;;;;;5020721;28;19916;-87
2023/03/29 08:10:38;;;;;;;5.20;3.20;;;8.60;99.90;;;;;;5035846;28;20424;-88
2023/03/29 08:13:40;;;;;;;11.68;3.58;;;8.80;99.90;;;;;;4967480;28;20038;-86
2023/03/29 08:16:25;;;;;;;112.82;37.60;;;8.80;99.90;;;;;;5043388;28;20043;-85
2023/03/29 08:18:58;;;;;;;35.83;11.60;;;8.90;99.90;;;;;;5003238;28;20057;-85
2023/03/29 08:21:48;;;;;;;37.35;16.35;;;9.40;99.90;;;;;;5018759;28;20108;-86
2023/03/29 08:24:15;;;;;;;28.90;14.95;;;9.60;99.90;;;;;;5034675;28;20048;-87
2023/03/29 08:26:47;;;;;;;9.63;5.88;;;10.00;99.90;;;;;;5018489;28;20079;-87
2023/03/29 08:29:16;;;;;;;11.13;4.70;;;10.00;99.90;;;;;;5018970;28;20103;-87
2023/03/29 08:31:43;;;;;;;6.30;3.55;;;10.30;99.90;;;;;;5018212;28;20051;-87
2023/03/29 08:34:09;;;;;;;8.63;3.80;;;10.30;99.90;;;;;;5018618;28;20033;-87
2023/03/29 08:36:40;;;;;;;10.63;4.43;;;10.40;99.90;;;;;;5035524;28;20057;-87
2023/03/29 08:39:30;;;;;;;19.92;7.60;;;10.40;99.90;;;;;;5053030;28;20492;-87
2023/03/29 08:42:52;;;;;;;16.38;6.32;;;10.40;99.90;;;;;;5024635;28;20741;-87
2023/03/29 08:45:39;;;;;;;7.50;3.35;;;10.50;99.90;;;;;;5020463;28;20079;-87
2023/03/29 08:48:21;;;;;;;8.75;3.63;;;10.50;99.90;;;;;;5021227;28;20033;-87
2023/03/29 08:50:51;;;;;;;9.45;3.33;;;10.50;99.90;;;;;;5035981;28;20080;-87
2023/03/29 08:53:45;;;;;;;8.38;3.30;;;10.30;99.90;;;;;;5018790;28;20420;-87
2023/03/29 08:56:37;;;;;;;8.00;3.70;;;10.30;99.90;;;;;;5028233;28;20037;-87
2023/03/29 08:59:29;;;;;;;12.98;4.57;;;10.40;99.90;;;;;;5020252;28;20059;-87
2023/03/29 09:01:59;;;;;;;10.63;3.42;;;10.40;99.90;;;;;;5016636;28;20152;-87
2023/03/29 09:04:31;;;;;;;13.68;3.08;;;10.30;99.90;;;;;;5019196;28;20783;-87
2023/03/29 09:07:20;;;;;;;11.65;3.92;;;10.30;99.90;;;;;;5033577;28;20034;-87
2023/03/29 09:09:46;;;;;;;6.00;3.30;;;10.30;99.90;;;;;;5034547;28;20024;-87
2023/03/29 09:12:35;;;;;;;7.40;3.28;;;10.30;99.90;;;;;;5014543;28;20853;-87
2023/03/29 09:15:20;;;;;;;9.50;3.53;;;10.20;99.90;;;;;;5017991;28;20029;-87
2023/03/29 09:18:19;;;;;;;9.05;3.50;;;10.00;99.90;;;;;;5043358;28;20518;-87
2023/03/29 09:21:07;;;;;;;8.20;3.45;;;10.10;99.90;;;;;;5018271;28;20349;-86
2023/03/29 09:24:04;;;;;;;7.55;3.20;;;9.90;99.90;;;;;;5020725;28;20059;-87
2023/03/29 09:27:18;;;;;;;8.80;4.00;;;9.70;99.90;;;;;;5018704;28;20025;-87
2023/03/29 09:29:58;;;;;;;8.00;3.45;;;9.50;99.90;;;;;;5056644;28;20025;-86
2023/03/29 09:32:50;;;;;;;6.07;3.80;;;9.50;99.90;;;;;;5037947;28;20046;-87
2023/03/29 09:35:26;;;;;;;8.95;4.20;;;9.60;99.90;;;;;;5053348;28;20476;-87
2023/03/29 09:37:54;;;;;;;6.65;3.85;;;9.50;99.90;;;;;;5025579;28;20129;-87
2023/03/29 09:40:31;;;;;;;4.70;3.05;;;9.50;99.90;;;;;;5023329;28;20032;-86
2023/03/29 09:43:14;;;;;;;11.77;3.50;;;9.50;99.90;;;;;;5037889;28;20021;-87
2023/03/29 09:45:41;;;;;;;11.90;4.18;;;9.30;99.90;;;;;;5031598;28;20681;-87
2023/03/29 09:48:16;;;;;;;8.25;3.20;;;9.20;99.90;;;;;;5038729;28;20123;-87
2023/03/29 09:50:50;;;;;;;7.20;3.17;;;9.10;99.90;;;;;;5036295;28;20021;-87
2023/03/29 09:53:18;;;;;;;7.72;4.13;;;9.00;99.90;;;;;;5024442;28;20037;-87
2023/03/29 09:55:54;;;;;;;7.20;3.63;;;8.90;99.90;;;;;;5046104;28;20035;-87
2023/03/29 09:58:37;;;;;;;7.03;3.97;;;8.80;99.90;;;;;;5048166;28;20119;-87
2023/03/29 10:01:09;;;;;;;16.23;4.20;;;8.80;99.90;;;;;;5025791;28;20028;-87
2023/03/29 10:03:35;;;;;;;7.95;3.97;;;8.80;99.90;;;;;;5047481;28;20075;-88
2023/03/29 10:06:11;;;;;;;6.18;3.20;;;8.80;99.90;;;;;;5021662;28;20079;-87
2023/03/29 10:08:49;;;;;;;7.00;3.47;;;8.70;99.90;;;;;;5046301;28;20667;-87
2023/03/29 10:11:32;;;;;;;12.77;5.25;;;8.90;99.90;;;;;;5034688;28;20028;-87
2023/03/29 10:14:15;;;;;;;31.50;16.80;;;9.00;99.90;;;;;;5028139;28;20040;-87
2023/03/29 10:16:46;;;;;;;32.28;12.60;;;9.10;99.90;;;;;;5044351;28;20032;-87
2023/03/29 10:19:18;;;;;;;28.50;11.88;;;9.20;99.90;;;;;;5026307;28;20033;-87
2023/03/29 10:21:47;;;;;;;11.38;4.72;;;9.40;99.90;;;;;;5036744;28;20476;-87
2023/03/29 10:24:21;;;;;;;6.50;3.70;;;10.10;99.90;;;;;;5038373;28;20035;-87
2023/03/29 10:26:50;;;;;;;10.07;6.05;;;10.80;99.90;;;;;;5039054;28;20057;-87
2023/03/29 10:29:16;;;;;;;7.82;4.45;;;11.40;99.90;;;;;;5038131;28;20076;-87
2023/03/29 10:31:42;;;;;;;19.15;6.85;;;11.80;99.90;;;;;;5037781;28;20036;-88
2023/03/29 10:34:12;;;;;;;10.93;4.97;;;11.60;99.90;;;;;;5021214;28;20021;-87
2023/03/29 10:36:42;;;;;;;15.55;7.53;;;11.90;99.90;;;;;;5021009;28;20124;-87
2023/03/29 10:39:12;;;;;;;11.57;4.28;;;12.10;99.90;;;;;;5037538;28;20080;-87
2023/03/29 10:41:37;;;;;;;19.20;10.48;;;12.30;99.90;;;;;;5037437;28;20025;-87
2023/03/29 10:44:05;;;;;;;21.85;9.68;;;12.60;99.90;;;;;;5037820;28;20047;-85
2023/03/29 10:46:40;;;;;;;14.35;7.03;;;12.50;99.90;;;;;;5039051;28;20031;-87
2023/03/29 10:49:17;;;;;;;16.77;7.22;;;12.20;99.90;;;;;;5042431;28;20503;-87
2023/03/29 10:51:44;;;;;;;22.10;11.77;;;12.40;99.90;;;;;;5038950;28;20118;-87
2023/03/29 10:54:13;;;;;;;13.30;6.00;;;12.30;99.90;;;;;;5019798;28;20079;-88
2023/03/29 10:56:46;;;;;;;12.05;4.38;;;12.30;99.90;;;;;;5033362;28;20028;-87
2023/03/29 10:59:34;;;;;;;27.50;10.88;;;12.60;99.90;;;;;;5021757;28;20032;-87
2023/03/29 11:02:47;;;;;;;9.90;5.25;;;12.80;99.90;;;;;;5018634;28;20498;-87
2023/03/29 11:05:24;;;;;;;23.70;8.48;;;13.40;99.90;;;;;;5030912;28;20033;-87
2023/03/29 11:08:15;;;;;;;19.65;9.32;;;13.50;99.90;;;;;;5036775;28;20476;-87
2023/03/29 11:10:40;;;;;;;34.78;13.68;;;13.60;99.90;;;;;;5021093;28;20029;-87
2023/03/29 11:13:32;;;;;;;17.20;7.35;;;13.50;99.90;;;;;;5036534;28;20035;-88
2023/03/29 11:16:09;;;;;;;12.45;6.38;;;13.60;99.90;;;;;;5019650;28;20183;-87
2023/03/29 11:19:03;;;;;;;13.02;3.67;;;13.90;99.90;;;;;;5037103;28;20388;-87
2023/03/29 11:21:38;;;;;;;5.68;3.55;;;14.50;99.90;;;;;;5029955;28;20086;-87
2023/03/29 11:24:26;;;;;;;12.85;3.72;;;14.40;99.90;;;;;;5036975;28;20029;-87
2023/03/29 11:27:30;;;;;;;6.63;3.30;;;14.50;99.90;;;;;;5037022;28;20079;-87
2023/03/29 11:30:07;;;;;;;6.43;3.92;;;14.60;99.90;;;;;;5032765;28;20032;-87
2023/03/29 11:32:40;;;;;;;6.50;3.75;;;14.60;99.90;;;;;;5036262;28;20114;-87
2023/03/29 11:35:26;;;;;;;7.82;3.90;;;14.00;99.90;;;;;;5042606;28;20033;-87
2023/03/29 11:38:00;;;;;;;9.75;4.32;;;13.90;99.90;;;;;;5016647;28;20045;-87
2023/03/29 11:40:53;;;;;;;8.68;4.05;;;14.30;99.90;;;;;;5036194;28;20045;-87
2023/03/29 11:43:28;;;;;;;8.00;3.70;;;14.70;99.90;;;;;;5019703;28;20025;-87
2023/03/29 11:46:37;;;;;;;7.28;3.55;;;14.80;99.90;;;;;;5016296;28;20045;-87
2023/03/29 11:52:33;;;;;;;5.72;3.10;;;14.60;99.90;;;;;;5028237;28;20437;-87
2023/03/29 11:55:03;;;;;;;9.47;5.23;;;14.80;99.90;;;;;;5019548;28;20112;-87
2023/03/29 11:57:55;;;;;;;8.82;4.78;;;14.90;99.90;;;;;;5029054;28;20029;-87
2023/03/29 12:00:35;;;;;;;5.35;3.10;;;15.20;99.90;;;;;;5050379;28;20476;-87
2023/03/29 12:03:27;;;;;;;7.53;3.70;;;15.00;99.90;;;;;;5039975;28;20021;-85
2023/03/29 12:06:18;;;;;;;9.32;3.20;;;15.50;99.90;;;;;;5035827;28;20115;-87
2023/03/29 12:08:51;;;;;;;10.60;4.47;;;15.30;99.90;;;;;;4990108;28;20033;-87
2023/03/29 12:11:31;;;;;;;7.70;3.40;;;15.00;99.90;;;;;;5018758;28;20091;-87
2023/03/29 12:14:05;;;;;;;7.45;4.18;;;14.60;99.90;;;;;;5018858;28;20119;-88
2023/03/29 12:16:52;;;;;;;7.10;3.70;;;14.50;99.90;;;;;;5110352;27;20936;-86
2023/03/29 12:19:29;;;;;;;6.00;3.65;;;14.40;99.90;;;;;;5090784;28;20024;-86
2023/03/29 12:21:57;;;;;;;5.05;3.17;;;14.50;99.90;;;;;;5071332;28;20479;-85
2023/03/29 12:24:28;;;;;;;5.97;3.22;;;14.70;99.90;;;;;;5072373;28;20078;-86
2023/03/29 12:27:09;;;;;;;5.13;3.22;;;14.80;99.90;;;;;;5088537;28;20036;-86
2023/03/29 12:30:09;;;;;;;7.07;3.87;;;14.60;99.90;;;;;;5065201;28;20375;-86
2023/03/29 12:32:43;;;;;;;11.30;3.85;;;14.70;99.90;;;;;;5071847;28;20016;-85
2023/03/29 12:36:11;;;;;;;5.78;3.67;;;14.90;99.90;;;;;;5090024;28;20094;-86
2023/03/29 12:39:17;;;;;;;9.70;2.85;;;14.70;99.90;;;;;;5083214;28;20020;-86
2023/03/29 12:42:18;;;;;;;12.77;3.95;;;15.00;99.90;;;;;;5089173;28;20044;-86
2023/03/29 12:45:03;;;;;;;7.80;4.57;;;15.50;99.90;;;;;;5089806;28;20453;-86
2023/03/29 12:47:38;;;;;;;5.45;3.42;;;15.90;99.90;;;;;;5073278;28;20028;-86
2023/03/29 12:50:05;;;;;;;7.15;3.67;;;15.80;99.90;;;;;;5073736;28;20032;-86
2023/03/29 12:52:34;;;;;;;7.88;3.40;;;14.90;99.90;;;;;;5071509;28;20039;-86
2023/03/29 12:55:04;;;;;;;6.88;3.95;;;14.60;99.90;;;;;;5088197;28;20066;-86
2023/03/29 12:57:42;;;;;;;6.20;3.92;;;14.40;99.90;;;;;;5087988;28;20021;-86
2023/03/29 13:00:42;;;;;;;7.70;3.88;;;14.00;99.90;;;;;;5104427;28;20020;-86
2023/03/29 13:03:38;;;;;;;5.88;3.50;;;14.00;99.90;;;;;;5070568;28;20024;-85
2023/03/29 13:06:55;;;;;;;12.13;3.50;;;14.20;99.90;;;;;;5073860;28;20028;-86
2023/03/29 13:09:27;;;;;;;10.82;5.20;;;14.70;99.90;;;;;;5076223;28;20059;-87
2023/03/29 13:11:56;;;;;;;14.45;3.97;;;15.00;99.90;;;;;;5087989;28;20044;-86
2023/03/29 13:14:28;;;;;;;16.10;5.20;;;14.90;99.90;;;;;;5087584;28;20066;-86
2023/03/29 13:17:04;;;;;;;11.52;4.07;;;15.40;99.90;;;;;;5087990;28;20368;-86
2023/03/29 13:19:48;;;;;;;9.77;3.60;;;15.40;99.90;;;;;;5087765;28;20036;-85
2023/03/29 13:22:41;;;;;;;8.65;3.22;;;15.40;99.90;;;;;;5087150;28;20054;-85
2023/03/29 13:25:35;;;;;;;6.03;3.47;;;15.70;99.90;;;;;;5087992;28;20047;-86
2023/03/29 13:28:01;;;;;;;6.40;3.97;;;16.10;99.90;;;;;;5070822;28;20089;-85
2023/03/29 13:30:44;;;;;;;6.13;3.70;;;16.00;99.90;;;;;;5073540;28;20032;-86
2023/03/29 13:33:25;;;;;;;4.70;3.30;;;15.90;99.90;;;;;;5073786;28;20044;-85
2023/03/29 13:36:02;;;;;;;6.85;3.63;;;15.60;99.90;;;;;;5052069;28;20032;-85
2023/03/29 13:38:30;;;;;;;5.93;3.42;;;16.00;99.90;;;;;;5074706;28;20128;-86